Terminal Aerodrome Forecast
Issued by NWS Wilmington, OH

Home | Current Version | Previous Version | Text Only | Print | Product List | Glossary On
Versions: 1 2 3 4 5 6 7 8 9 10 11 12 13 14
113
FTUS41 KILN 270903 AAA
TAFILN
TAF AMD
KILN 270903Z 2709/2806 18012G20KT P6SM BKN050 BKN100 WS020/20045KT
     FM271200 19015G25KT P6SM VCSH BKN050
     FM271800 23015G25KT P6SM BKN040
     FM280000 25010KT P6SM BKN040
     FM280400 24006KT P6SM SCT150=

USA.gov is the U.S. government's official web portal to all federal, state and local government web resources and services.